Norwegian Epic — C6XP7 — position and weather

sailwx.info

Track history (hours):
 
Tides and Currents Weather Stations Pressure Air Temp Water Temp Dewpoint Dewpoint Depression Visibility Wind Speed Wind Dir Waves Ship Positions

Norwegian Epic

Last reported at 2017-Mar-22 09:33 UTC. Time now 2017-Mar-24 20:03 UTC.
Position N 18°11' W 064°53'.

Length 329 m; draft 9.2 m.

Type: Passenger vessel. MMSI: 311018500.

Date/timePositionNaut miles runAvg speedWind from/ knotsBaromVisibWave heightAir tempDewpointWater temp
2017-Mar-22 09:33N 18°11' W 064°53'22 2.1
2017-Mar-21 23:04N 18°20' W 064°32'4 7.9
2017-Mar-21 22:33N 18°24' W 064°33'3 0.3
2017-Mar-21 11:10N 18°25' W 064°36'5 7.4
2017-Mar-21 10:34N 18°25' W 064°32'8 8.2
2017-Mar-21 09:34N 18°33' W 064°34'1111.5
2017-Mar-21 08:34N 18°39' W 064°44'  
2017-Mar-13 22:20N 20°42' W 086°48'1418.5
2017-Mar-13 21:33N 20°31' W 086°58'0 0.3
2017-Mar-13 20:33N 20°31' W 086°57'0 0.0
2017-Mar-13 19:33N 20°31' W 086°57'0 0.0
2017-Mar-13 18:31N 20°31' W 086°57'0 0.0
2017-Mar-13 17:32N 20°31' W 086°57'0 0.0
2017-Mar-13 16:32N 20°31' W 086°57'0 0.0
2017-Mar-13 15:33N 20°31' W 086°57'0 0.0
2017-Mar-13 14:31N 20°31' W 086°57'0 0.0
2017-Mar-13 13:31N 20°31' W 086°57'0 0.0
2017-Mar-13 12:32N 20°31' W 086°57'2 2.2
2017-Mar-13 11:34N 20°33' W 086°57'  
Track history (hours):
 
Tides and Currents Weather Stations Pressure Air Temp Water Temp Dewpoint Dewpoint Depression Visibility Wind Speed Wind Dir Waves Ship Positions

Norwegian Epic

Last reported at 2017-Mar-22 09:33 UTC. Time now 2017-Mar-24 20:03 UTC.
Position N 18°11' W 064°53'.

Length 329 m; draft 9.2 m.

Type: Passenger vessel. MMSI: 311018500.

Date/timePositionNaut miles runAvg speedWind from/ knotsBaromVisibWave heightAir tempDewpointWater temp
2017-Mar-22 09:33N 18°11' W 064°53'22 2.1
2017-Mar-21 23:04N 18°20' W 064°32'4 7.9
2017-Mar-21 22:33N 18°24' W 064°33'3 0.3
2017-Mar-21 11:10N 18°25' W 064°36'5 7.4
2017-Mar-21 10:34N 18°25' W 064°32'8 8.2
2017-Mar-21 09:34N 18°33' W 064°34'1111.5
2017-Mar-21 08:34N 18°39' W 064°44'  
2017-Mar-13 22:20N 20°42' W 086°48'1418.5
2017-Mar-13 21:33N 20°31' W 086°58'0 0.3
2017-Mar-13 20:33N 20°31' W 086°57'0 0.0
2017-Mar-13 19:33N 20°31' W 086°57'0 0.0
2017-Mar-13 18:31N 20°31' W 086°57'0 0.0
2017-Mar-13 17:32N 20°31' W 086°57'0 0.0
2017-Mar-13 16:32N 20°31' W 086°57'0 0.0
2017-Mar-13 15:33N 20°31' W 086°57'0 0.0
2017-Mar-13 14:31N 20°31' W 086°57'0 0.0
2017-Mar-13 13:31N 20°31' W 086°57'0 0.0
2017-Mar-13 12:32N 20°31' W 086°57'2 2.2
2017-Mar-13 11:34N 20°33' W 086°57'  

Dump ship's entire track history